sensor_id;sensor_type;location;lat;lon;timestamp;temperature;humidity
8595;DHT22;4335;48.860;9.198;2023-07-13T00:01:37;21.80;99.90
8595;DHT22;4335;48.860;9.198;2023-07-13T00:04:08;21.70;99.90
8595;DHT22;4335;48.860;9.198;2023-07-13T00:06:35;21.70;99.90
8595;DHT22;4335;48.860;9.198;2023-07-13T00:09:08;21.60;99.90
8595;DHT22;4335;48.860;9.198;2023-07-13T00:11:36;21.60;99.90
8595;DHT22;4335;48.860;9.198;2023-07-13T00:14:08;21.60;99.90
8595;DHT22;4335;48.860;9.198;2023-07-13T00:16:38;21.50;99.90
8595;DHT22;4335;48.860;9.198;2023-07-13T00:19:06;21.40;99.90
8595;DHT22;4335;48.860;9.198;2023-07-13T00:21:35;21.40;99.90
8595;DHT22;4335;48.860;9.198;2023-07-13T00:24:03;21.30;99.90
8595;DHT22;4335;48.860;9.198;2023-07-13T00:26:30;21.30;99.90
8595;DHT22;4335;48.860;9.198;2023-07-13T00:28:58;21.20;99.90
8595;DHT22;4335;48.860;9.198;2023-07-13T00:31:35;21.20;99.90
8595;DHT22;4335;48.860;9.198;2023-07-13T00:34:05;21.10;99.90
8595;DHT22;4335;48.860;9.198;2023-07-13T00:36:35;21.10;99.90
8595;DHT22;4335;48.860;9.198;2023-07-13T00:39:03;21.00;99.90
8595;DHT22;4335;48.860;9.198;2023-07-13T00:41:31;20.90;99.90
8595;DHT22;4335;48.860;9.198;2023-07-13T00:43:58;20.80;99.90
8595;DHT22;4335;48.860;9.198;2023-07-13T00:46:31;20.80;99.90
8595;DHT22;4335;48.860;9.198;2023-07-13T00:49:01;20.60;99.90
8595;DHT22;4335;48.860;9.198;2023-07-13T00:51:35;20.60;99.90
8595;DHT22;4335;48.860;9.198;2023-07-13T00:54:14;20.50;99.90
8595;DHT22;4335;48.860;9.198;2023-07-13T00:56:44;20.50;99.90
8595;DHT22;4335;48.860;9.198;2023-07-13T00:59:13;20.50;99.90
8595;DHT22;4335;48.860;9.198;2023-07-13T01:01:42;20.50;99.90
8595;DHT22;4335;48.860;9.198;2023-07-13T01:04:11;20.50;99.90
8595;DHT22;4335;48.860;9.198;2023-07-13T01:06:40;20.50;99.90
8595;DHT22;4335;48.860;9.198;2023-07-13T01:09:10;20.50;99.90
8595;DHT22;4335;48.860;9.198;2023-07-13T01:11:37;20.40;99.90
8595;DHT22;4335;48.860;9.198;2023-07-13T01:14:05;20.50;99.90
8595;DHT22;4335;48.860;9.198;2023-07-13T01:16:36;20.40;99.90
8595;DHT22;4335;48.860;9.198;2023-07-13T01:19:12;20.50;99.90
8595;DHT22;4335;48.860;9.198;2023-07-13T01:21:50;20.50;99.90
8595;DHT22;4335;48.860;9.198;2023-07-13T01:24:18;20.40;99.90
8595;DHT22;4335;48.860;9.198;2023-07-13T01:26:45;20.40;99.90
8595;DHT22;4335;48.860;9.198;2023-07-13T01:29:12;20.40;99.90
8595;DHT22;4335;48.860;9.198;2023-07-13T01:31:46;20.40;99.90
8595;DHT22;4335;48.860;9.198;2023-07-13T01:34:13;20.40;99.90
8595;DHT22;4335;48.860;9.198;2023-07-13T01:36:41;20.40;99.90
8595;DHT22;4335;48.860;9.198;2023-07-13T01:39:10;20.30;99.90
8595;DHT22;4335;48.860;9.198;2023-07-13T01:41:40;20.30;99.90
8595;DHT22;4335;48.860;9.198;2023-07-13T01:44:08;20.30;99.90
8595;DHT22;4335;48.860;9.198;2023-07-13T01:46:51;20.20;99.90
8595;DHT22;4335;48.860;9.198;2023-07-13T01:49:22;20.20;99.90
8595;DHT22;4335;48.860;9.198;2023-07-13T01:51:49;20.10;99.90
8595;DHT22;4335;48.860;9.198;2023-07-13T01:54:21;20.10;99.90
8595;DHT22;4335;48.860;9.198;2023-07-13T01:56:51;20.10;99.90
8595;DHT22;4335;48.860;9.198;2023-07-13T01:59:18;20.10;99.90
8595;DHT22;4335;48.860;9.198;2023-07-13T02:01:52;20.10;99.90
8595;DHT22;4335;48.860;9.198;2023-07-13T02:04:25;20.00;99.90
8595;DHT22;4335;48.860;9.198;2023-07-13T02:06:52;20.00;99.90
8595;DHT22;4335;48.860;9.198;2023-07-13T02:09:24;20.00;99.90
8595;DHT22;4335;48.860;9.198;2023-07-13T02:11:52;19.90;99.90
8595;DHT22;4335;48.860;9.198;2023-07-13T02:14:20;19.90;99.90
8595;DHT22;4335;48.860;9.198;2023-07-13T02:16:50;19.90;99.90
8595;DHT22;4335;48.860;9.198;2023-07-13T02:19:17;19.90;99.90
8595;DHT22;4335;48.860;9.198;2023-07-13T02:21:45;19.90;99.90
8595;DHT22;4335;48.860;9.198;2023-07-13T02:24:12;19.90;99.90
8595;DHT22;4335;48.860;9.198;2023-07-13T02:26:44;19.80;99.90
8595;DHT22;4335;48.860;9.198;2023-07-13T02:29:14;19.80;99.90
8595;DHT22;4335;48.860;9.198;2023-07-13T02:31:42;19.80;99.90
8595;DHT22;4335;48.860;9.198;2023-07-13T02:34:10;19.70;99.90
8595;DHT22;4335;48.860;9.198;2023-07-13T02:36:37;19.70;99.90
8595;DHT22;4335;48.860;9.198;2023-07-13T02:39:08;19.70;99.90
8595;DHT22;4335;48.860;9.198;2023-07-13T02:41:35;19.70;99.90
8595;DHT22;4335;48.860;9.198;2023-07-13T02:44:12;19.60;99.90
8595;DHT22;4335;48.860;9.198;2023-07-13T02:46:43;19.60;99.90
8595;DHT22;4335;48.860;9.198;2023-07-13T02:49:10;19.60;99.90
8595;DHT22;4335;48.860;9.198;2023-07-13T02:51:43;19.60;99.90
8595;DHT22;4335;48.860;9.198;2023-07-13T02:54:11;19.60;99.90
8595;DHT22;4335;48.860;9.198;2023-07-13T02:56:39;19.60;99.90
8595;DHT22;4335;48.860;9.198;2023-07-13T02:59:08;19.50;99.90
8595;DHT22;4335;48.860;9.198;2023-07-13T03:01:42;19.50;99.90
8595;DHT22;4335;48.860;9.198;2023-07-13T03:04:12;19.50;99.90
8595;DHT22;4335;48.860;9.198;2023-07-13T03:06:39;19.50;99.90
8595;DHT22;4335;48.860;9.198;2023-07-13T03:09:13;19.50;99.90
8595;DHT22;4335;48.860;9.198;2023-07-13T03:11:43;19.40;99.90
8595;DHT22;4335;48.860;9.198;2023-07-13T03:14:14;19.40;99.90
8595;DHT22;4335;48.860;9.198;2023-07-13T03:16:42;19.40;99.90
8595;DHT22;4335;48.860;9.198;2023-07-13T03:19:09;19.40;99.90
8595;DHT22;4335;48.860;9.198;2023-07-13T03:21:39;19.40;99.90
8595;DHT22;4335;48.860;9.198;2023-07-13T03:24:12;19.50;99.90
8595;DHT22;4335;48.860;9.198;2023-07-13T03:26:43;19.50;99.90
8595;DHT22;4335;48.860;9.198;2023-07-13T03:29:12;19.50;99.90
8595;DHT22;4335;48.860;9.198;2023-07-13T03:31:40;19.60;99.90
8595;DHT22;4335;48.860;9.198;2023-07-13T03:34:07;19.60;99.90
8595;DHT22;4335;48.860;9.198;2023-07-13T03:36:35;19.60;99.90
8595;DHT22;4335;48.860;9.198;2023-07-13T03:39:03;19.60;99.90
8595;DHT22;4335;48.860;9.198;2023-07-13T03:41:34;19.60;99.90
8595;DHT22;4335;48.860;9.198;2023-07-13T03:44:01;19.70;99.90
8595;DHT22;4335;48.860;9.198;2023-07-13T03:46:30;19.70;99.90
8595;DHT22;4335;48.860;9.198;2023-07-13T03:49:00;19.80;99.90
8595;DHT22;4335;48.860;9.198;2023-07-13T03:51:27;19.80;99.90
8595;DHT22;4335;48.860;9.198;2023-07-13T03:53:57;19.80;99.90
8595;DHT22;4335;48.860;9.198;2023-07-13T03:56:25;19.90;99.90
8595;DHT22;4335;48.860;9.198;2023-07-13T03:58:56;20.00;99.90
8595;DHT22;4335;48.860;9.198;2023-07-13T04:01:24;20.10;99.90
8595;DHT22;4335;48.860;9.198;2023-07-13T04:03:55;20.20;99.90
8595;DHT22;4335;48.860;9.198;2023-07-13T04:06:26;20.20;99.90
8595;DHT22;4335;48.860;9.198;2023-07-13T04:08:55;20.30;99.90
8595;DHT22;4335;48.860;9.198;2023-07-13T04:11:25;20.30;99.90
8595;DHT22;4335;48.860;9.198;2023-07-13T04:13:53;20.20;99.90
8595;DHT22;4335;48.860;9.198;2023-07-13T04:16:20;20.20;99.90
8595;DHT22;4335;48.860;9.198;2023-07-13T04:18:52;20.20;99.90
8595;DHT22;4335;48.860;9.198;2023-07-13T04:21:27;20.20;99.90
8595;DHT22;4335;48.860;9.198;2023-07-13T04:24:04;20.20;99.90
8595;DHT22;4335;48.860;9.198;2023-07-13T04:26:34;20.20;99.90
8595;DHT22;4335;48.860;9.198;2023-07-13T04:29:07;20.20;99.90
8595;DHT22;4335;48.860;9.198;2023-07-13T04:31:35;20.30;99.90
8595;DHT22;4335;48.860;9.198;2023-07-13T04:34:03;20.30;99.90
8595;DHT22;4335;48.860;9.198;2023-07-13T04:36:34;20.40;99.90
8595;DHT22;4335;48.860;9.198;2023-07-13T04:39:09;20.40;99.90
8595;DHT22;4335;48.860;9.198;2023-07-13T04:41:36;20.50;99.90
8595;DHT22;4335;48.860;9.198;2023-07-13T04:44:04;20.50;99.90
8595;DHT22;4335;48.860;9.198;2023-07-13T04:46:34;20.40;99.90
8595;DHT22;4335;48.860;9.198;2023-07-13T04:49:14;20.30;99.90
8595;DHT22;4335;48.860;9.198;2023-07-13T04:51:42;20.30;99.90
8595;DHT22;4335;48.860;9.198;2023-07-13T04:54:11;20.30;99.90
8595;DHT22;4335;48.860;9.198;2023-07-13T04:56:45;20.30;99.90
8595;DHT22;4335;48.860;9.198;2023-07-13T04:59:15;20.30;99.90
8595;DHT22;4335;48.860;9.198;2023-07-13T05:01:53;20.30;99.90
8595;DHT22;4335;48.860;9.198;2023-07-13T05:04:25;20.30;99.90
8595;DHT22;4335;48.860;9.198;2023-07-13T05:06:58;20.40;99.90
8595;DHT22;4335;48.860;9.198;2023-07-13T05:09:26;20.50;99.90
8595;DHT22;4335;48.860;9.198;2023-07-13T05:11:53;20.60;99.90
8595;DHT22;4335;48.860;9.198;2023-07-13T05:14:20;20.80;99.90
8595;DHT22;4335;48.860;9.198;2023-07-13T05:16:48;21.30;99.90
8595;DHT22;4335;48.860;9.198;2023-07-13T05:19:26;21.70;99.90
8595;DHT22;4335;48.860;9.198;2023-07-13T05:21:53;22.00;99.90
8595;DHT22;4335;48.860;9.198;2023-07-13T05:24:27;22.20;99.90
8595;DHT22;4335;48.860;9.198;2023-07-13T05:27:04;22.30;99.90
8595;DHT22;4335;48.860;9.198;2023-07-13T05:29:34;22.30;99.90
8595;DHT22;4335;48.860;9.198;2023-07-13T05:32:02;22.30;99.90
8595;DHT22;4335;48.860;9.198;2023-07-13T05:34:37;22.30;99.90
8595;DHT22;4335;48.860;9.198;2023-07-13T05:37:10;22.30;99.90
8595;DHT22;4335;48.860;9.198;2023-07-13T05:39:41;22.30;99.90
8595;DHT22;4335;48.860;9.198;2023-07-13T05:42:10;22.30;99.90
8595;DHT22;4335;48.860;9.198;2023-07-13T05:44:41;22.30;99.90
8595;DHT22;4335;48.860;9.198;2023-07-13T05:47:10;22.30;99.90
8595;DHT22;4335;48.860;9.198;2023-07-13T05:49:43;22.30;99.90
8595;DHT22;4335;48.860;9.198;2023-07-13T05:52:11;22.30;99.90
8595;DHT22;4335;48.860;9.198;2023-07-13T05:54:38;22.30;99.90
8595;DHT22;4335;48.860;9.198;2023-07-13T05:57:05;22.20;99.90
8595;DHT22;4335;48.860;9.198;2023-07-13T05:59:38;22.20;99.90
8595;DHT22;4335;48.860;9.198;2023-07-13T06:02:08;22.20;99.90
8595;DHT22;4335;48.860;9.198;2023-07-13T06:04:36;22.20;99.90
8595;DHT22;4335;48.860;9.198;2023-07-13T06:07:05;22.40;99.90
8595;DHT22;4335;48.860;9.198;2023-07-13T06:09:33;22.60;99.90
8595;DHT22;4335;48.860;9.198;2023-07-13T06:12:01;23.00;99.90
8595;DHT22;4335;48.860;9.198;2023-07-13T06:14:28;23.40;99.90
8595;DHT22;4335;48.860;9.198;2023-07-13T06:16:56;23.60;99.90
8595;DHT22;4335;48.860;9.198;2023-07-13T06:19:23;24.10;99.90
8595;DHT22;4335;48.860;9.198;2023-07-13T06:21:53;24.40;99.90
8595;DHT22;4335;48.860;9.198;2023-07-13T06:24:22;24.70;99.90
8595;DHT22;4335;48.860;9.198;2023-07-13T06:26:49;24.90;99.90
8595;DHT22;4335;48.860;9.198;2023-07-13T06:29:23;25.00;99.90
8595;DHT22;4335;48.860;9.198;2023-07-13T06:31:53;25.30;99.40
8595;DHT22;4335;48.860;9.198;2023-07-13T06:34:21;25.40;98.20
8595;DHT22;4335;48.860;9.198;2023-07-13T06:36:48;25.40;97.70
8595;DHT22;4335;48.860;9.198;2023-07-13T06:39:16;25.50;97.60
8595;DHT22;4335;48.860;9.198;2023-07-13T06:41:45;25.60;97.00
8595;DHT22;4335;48.860;9.198;2023-07-13T06:44:12;25.80;96.40
8595;DHT22;4335;48.860;9.198;2023-07-13T06:46:42;26.40;95.50
8595;DHT22;4335;48.860;9.198;2023-07-13T06:49:12;27.30;93.20
8595;DHT22;4335;48.860;9.198;2023-07-13T06:51:52;28.00;90.50
8595;DHT22;4335;48.860;9.198;2023-07-13T06:54:19;28.80;86.00
8595;DHT22;4335;48.860;9.198;2023-07-13T06:56:48;29.50;81.50
8595;DHT22;4335;48.860;9.198;2023-07-13T06:59:21;29.90;78.70
8595;DHT22;4335;48.860;9.198;2023-07-13T07:01:49;30.60;74.50
8595;DHT22;4335;48.860;9.198;2023-07-13T07:04:26;31.30;71.10
8595;DHT22;4335;48.860;9.198;2023-07-13T07:06:57;31.30;67.90
8595;DHT22;4335;48.860;9.198;2023-07-13T07:09:24;31.80;66.50
8595;DHT22;4335;48.860;9.198;2023-07-13T07:11:56;32.40;64.00
8595;DHT22;4335;48.860;9.198;2023-07-13T07:14:23;32.70;62.00
8595;DHT22;4335;48.860;9.198;2023-07-13T07:16:51;32.80;59.60
8595;DHT22;4335;48.860;9.198;2023-07-13T07:19:18;33.50;58.00
8595;DHT22;4335;48.860;9.198;2023-07-13T07:21:46;33.90;56.10
8595;DHT22;4335;48.860;9.198;2023-07-13T07:24:13;34.90;53.70
8595;DHT22;4335;48.860;9.198;2023-07-13T07:26:50;35.50;51.40
8595;DHT22;4335;48.860;9.198;2023-07-13T07:29:25;35.90;50.60
8595;DHT22;4335;48.860;9.198;2023-07-13T07:31:59;36.30;49.50
8595;DHT22;4335;48.860;9.198;2023-07-13T07:34:33;36.70;48.30
8595;DHT22;4335;48.860;9.198;2023-07-13T07:37:01;37.00;47.30
8595;DHT22;4335;48.860;9.198;2023-07-13T07:39:31;37.20;45.70
8595;DHT22;4335;48.860;9.198;2023-07-13T07:42:02;37.70;45.50
8595;DHT22;4335;48.860;9.198;2023-07-13T07:44:33;38.00;44.80
8595;DHT22;4335;48.860;9.198;2023-07-13T07:47:01;38.20;43.70
8595;DHT22;4335;48.860;9.198;2023-07-13T07:49:31;37.80;41.70
8595;DHT22;4335;48.860;9.198;2023-07-13T07:51:58;37.90;41.20
8595;DHT22;4335;48.860;9.198;2023-07-13T07:54:27;38.10;41.30
8595;DHT22;4335;48.860;9.198;2023-07-13T07:56:57;38.40;40.40
8595;DHT22;4335;48.860;9.198;2023-07-13T07:59:25;38.00;39.60
8595;DHT22;4335;48.860;9.198;2023-07-13T08:01:54;37.80;40.90
8595;DHT22;4335;48.860;9.198;2023-07-13T08:04:24;37.10;41.70
8595;DHT22;4335;48.860;9.198;2023-07-13T08:06:51;37.00;42.70
8595;DHT22;4335;48.860;9.198;2023-07-13T08:09:18;36.50;41.80
8595;DHT22;4335;48.860;9.198;2023-07-13T08:11:46;36.70;42.20
8595;DHT22;4335;48.860;9.198;2023-07-13T08:14:13;36.40;42.60
8595;DHT22;4335;48.860;9.198;2023-07-13T08:16:41;36.30;42.50
8595;DHT22;4335;48.860;9.198;2023-07-13T08:19:13;36.60;41.80
8595;DHT22;4335;48.860;9.198;2023-07-13T08:21:40;36.70;41.50
8595;DHT22;4335;48.860;9.198;2023-07-13T08:24:11;36.90;42.20
8595;DHT22;4335;48.860;9.198;2023-07-13T08:26:42;37.40;40.40
8595;DHT22;4335;48.860;9.198;2023-07-13T08:29:12;37.70;39.50
8595;DHT22;4335;48.860;9.198;2023-07-13T08:31:46;37.90;36.50
8595;DHT22;4335;48.860;9.198;2023-07-13T08:34:17;38.80;36.80
8595;DHT22;4335;48.860;9.198;2023-07-13T08:36:47;39.30;36.00
8595;DHT22;4335;48.860;9.198;2023-07-13T08:39:15;39.50;35.50
8595;DHT22;4335;48.860;9.198;2023-07-13T08:41:44;40.20;34.70
8595;DHT22;4335;48.860;9.198;2023-07-13T08:44:30;40.40;34.50
8595;DHT22;4335;48.860;9.198;2023-07-13T08:47:11;39.90;33.80
8595;DHT22;4335;48.860;9.198;2023-07-13T08:49:40;40.40;34.30
8595;DHT22;4335;48.860;9.198;2023-07-13T08:52:13;40.30;33.70
8595;DHT22;4335;48.860;9.198;2023-07-13T08:54:52;40.70;33.50
8595;DHT22;4335;48.860;9.198;2023-07-13T08:57:29;41.50;33.00
8595;DHT22;4335;48.860;9.198;2023-07-13T09:00:10;41.80;32.70
8595;DHT22;4335;48.860;9.198;2023-07-13T09:02:42;41.80;31.90
8595;DHT22;4335;48.860;9.198;2023-07-13T09:05:17;41.80;31.60
8595;DHT22;4335;48.860;9.198;2023-07-13T09:08:00;42.80;31.40
8595;DHT22;4335;48.860;9.198;2023-07-13T09:10:30;42.30;31.10
8595;DHT22;4335;48.860;9.198;2023-07-13T09:13:12;42.00;31.40
8595;DHT22;4335;48.860;9.198;2023-07-13T09:15:44;41.90;31.20
8595;DHT22;4335;48.860;9.198;2023-07-13T09:18:19;41.80;31.40
8595;DHT22;4335;48.860;9.198;2023-07-13T09:20:52;41.60;31.70
8595;DHT22;4335;48.860;9.198;2023-07-13T09:23:23;42.20;31.80
8595;DHT22;4335;48.860;9.198;2023-07-13T09:26:04;41.70;31.30
8595;DHT22;4335;48.860;9.198;2023-07-13T09:28:39;41.50;31.30
8595;DHT22;4335;48.860;9.198;2023-07-13T09:31:19;41.60;31.40
8595;DHT22;4335;48.860;9.198;2023-07-13T09:33:48;41.90;30.60
8595;DHT22;4335;48.860;9.198;2023-07-13T09:36:24;41.90;30.70
8595;DHT22;4335;48.860;9.198;2023-07-13T09:38:59;41.40;31.10
8595;DHT22;4335;48.860;9.198;2023-07-13T09:41:34;41.10;30.90
8595;DHT22;4335;48.860;9.198;2023-07-13T09:44:11;41.30;30.90
8595;DHT22;4335;48.860;9.198;2023-07-13T09:46:42;41.20;30.20
8595;DHT22;4335;48.860;9.198;2023-07-13T09:49:11;41.40;30.60
8595;DHT22;4335;48.860;9.198;2023-07-13T09:51:42;42.10;30.40
8595;DHT22;4335;48.860;9.198;2023-07-13T09:54:20;42.10;30.00
8595;DHT22;4335;48.860;9.198;2023-07-13T09:56:54;41.80;30.30
8595;DHT22;4335;48.860;9.198;2023-07-13T09:59:26;41.20;30.10
8595;DHT22;4335;48.860;9.198;2023-07-13T10:01:54;40.80;30.70
8595;DHT22;4335;48.860;9.198;2023-07-13T10:04:31;40.90;30.60
8595;DHT22;4335;48.860;9.198;2023-07-13T10:07:13;41.10;30.70
8595;DHT22;4335;48.860;9.198;2023-07-13T10:09:47;40.80;30.50
8595;DHT22;4335;48.860;9.198;2023-07-13T10:12:14;40.60;31.00
8595;DHT22;4335;48.860;9.198;2023-07-13T10:14:48;40.10;31.00
8595;DHT22;4335;48.860;9.198;2023-07-13T10:17:18;40.00;31.50
8595;DHT22;4335;48.860;9.198;2023-07-13T10:19:50;40.10;32.00
8595;DHT22;4335;48.860;9.198;2023-07-13T10:22:25;39.20;32.60
8595;DHT22;4335;48.860;9.198;2023-07-13T10:24:57;38.50;33.90
8595;DHT22;4335;48.860;9.198;2023-07-13T10:27:32;37.80;34.70
8595;DHT22;4335;48.860;9.198;2023-07-13T10:30:09;37.70;34.70
8595;DHT22;4335;48.860;9.198;2023-07-13T10:32:46;37.40;35.00
8595;DHT22;4335;48.860;9.198;2023-07-13T10:35:16;36.60;35.20
8595;DHT22;4335;48.860;9.198;2023-07-13T10:37:49;36.40;36.10
8595;DHT22;4335;48.860;9.198;2023-07-13T10:40:25;35.80;36.80
8595;DHT22;4335;48.860;9.198;2023-07-13T10:42:54;35.00;37.20
8595;DHT22;4335;48.860;9.198;2023-07-13T10:45:27;34.90;37.40
8595;DHT22;4335;48.860;9.198;2023-07-13T10:47:56;34.60;38.30
8595;DHT22;4335;48.860;9.198;2023-07-13T10:50:25;34.10;38.80
8595;DHT22;4335;48.860;9.198;2023-07-13T10:53:02;33.70;39.50
8595;DHT22;4335;48.860;9.198;2023-07-13T10:55:41;33.20;40.00
8595;DHT22;4335;48.860;9.198;2023-07-13T10:58:29;33.00;40.10
8595;DHT22;4335;48.860;9.198;2023-07-13T11:01:07;32.20;42.20
8595;DHT22;4335;48.860;9.198;2023-07-13T11:03:36;31.40;42.50
8595;DHT22;4335;48.860;9.198;2023-07-13T11:06:08;31.40;43.40
8595;DHT22;4335;48.860;9.198;2023-07-13T11:08:50;31.30;44.00
8595;DHT22;4335;48.860;9.198;2023-07-13T11:11:39;31.30;44.30
8595;DHT22;4335;48.860;9.198;2023-07-13T11:14:29;30.80;43.90
8595;DHT22;4335;48.860;9.198;2023-07-13T11:16:57;30.20;43.50
8595;DHT22;4335;48.860;9.198;2023-07-13T11:19:42;30.00;44.50
8595;DHT22;4335;48.860;9.198;2023-07-13T11:22:21;29.50;44.80
8595;DHT22;4335;48.860;9.198;2023-07-13T11:24:59;29.30;45.70
8595;DHT22;4335;48.860;9.198;2023-07-13T11:27:40;29.20;45.30
8595;DHT22;4335;48.860;9.198;2023-07-13T11:30:34;29.10;45.40
8595;DHT22;4335;48.860;9.198;2023-07-13T11:33:13;29.10;46.20
8595;DHT22;4335;48.860;9.198;2023-07-13T11:35:57;28.90;46.00
8595;DHT22;4335;48.860;9.198;2023-07-13T11:38:32;28.80;46.50
8595;DHT22;4335;48.860;9.198;2023-07-13T11:41:06;28.60;46.50
8595;DHT22;4335;48.860;9.198;2023-07-13T11:43:34;28.60;46.80
8595;DHT22;4335;48.860;9.198;2023-07-13T11:46:15;28.70;46.70
8595;DHT22;4335;48.860;9.198;2023-07-13T11:48:44;28.70;47.20
8595;DHT22;4335;48.860;9.198;2023-07-13T11:51:19;28.80;47.60
8595;DHT22;4335;48.860;9.198;2023-07-13T11:53:49;28.60;47.00
8595;DHT22;4335;48.860;9.198;2023-07-13T11:56:22;28.60;47.50
8595;DHT22;4335;48.860;9.198;2023-07-13T11:58:53;28.60;47.10
8595;DHT22;4335;48.860;9.198;2023-07-13T12:01:24;28.40;47.20
8595;DHT22;4335;48.860;9.198;2023-07-13T12:03:55;28.30;47.90
8595;DHT22;4335;48.860;9.198;2023-07-13T12:06:27;28.20;48.00
8595;DHT22;4335;48.860;9.198;2023-07-13T12:08:58;28.20;48.20
8595;DHT22;4335;48.860;9.198;2023-07-13T12:11:28;28.20;48.20
8595;DHT22;4335;48.860;9.198;2023-07-13T12:13:55;28.10;47.70
8595;DHT22;4335;48.860;9.198;2023-07-13T12:16:28;28.00;47.90
8595;DHT22;4335;48.860;9.198;2023-07-13T12:18:56;27.90;48.10
8595;DHT22;4335;48.860;9.198;2023-07-13T12:21:30;27.80;48.00
8595;DHT22;4335;48.860;9.198;2023-07-13T12:23:58;27.80;48.10
8595;DHT22;4335;48.860;9.198;2023-07-13T12:26:29;27.70;48.50
8595;DHT22;4335;48.860;9.198;2023-07-13T12:29:01;27.70;48.40
8595;DHT22;4335;48.860;9.198;2023-07-13T12:31:35;27.50;48.50
8595;DHT22;4335;48.860;9.198;2023-07-13T12:34:07;27.40;49.20
8595;DHT22;4335;48.860;9.198;2023-07-13T12:36:37;27.40;49.10
8595;DHT22;4335;48.860;9.198;2023-07-13T12:39:14;27.50;48.70
8595;DHT22;4335;48.860;9.198;2023-07-13T12:41:44;27.60;49.00
8595;DHT22;4335;48.860;9.198;2023-07-13T12:44:13;27.50;48.60
8595;DHT22;4335;48.860;9.198;2023-07-13T12:46:54;27.50;48.40
8595;DHT22;4335;48.860;9.198;2023-07-13T12:49:34;27.50;48.30
8595;DHT22;4335;48.860;9.198;2023-07-13T12:52:03;27.30;47.60
8595;DHT22;4335;48.860;9.198;2023-07-13T12:54:31;27.30;47.50
8595;DHT22;4335;48.860;9.198;2023-07-13T12:57:01;27.40;47.80
8595;DHT22;4335;48.860;9.198;2023-07-13T12:59:32;27.50;47.60
8595;DHT22;4335;48.860;9.198;2023-07-13T13:02:05;27.40;47.20
8595;DHT22;4335;48.860;9.198;2023-07-13T13:04:48;27.30;47.60
8595;DHT22;4335;48.860;9.198;2023-07-13T13:07:19;27.10;47.50
8595;DHT22;4335;48.860;9.198;2023-07-13T13:09:55;27.20;48.40
8595;DHT22;4335;48.860;9.198;2023-07-13T13:12:31;27.10;48.80
8595;DHT22;4335;48.860;9.198;2023-07-13T13:15:02;27.10;48.30
8595;DHT22;4335;48.860;9.198;2023-07-13T13:17:31;27.10;48.30
8595;DHT22;4335;48.860;9.198;2023-07-13T13:20:01;27.00;48.30
8595;DHT22;4335;48.860;9.198;2023-07-13T13:22:34;27.10;49.20
8595;DHT22;4335;48.860;9.198;2023-07-13T13:25:01;27.30;48.80
8595;DHT22;4335;48.860;9.198;2023-07-13T13:27:30;27.40;48.50
8595;DHT22;4335;48.860;9.198;2023-07-13T13:29:59;27.50;48.60
8595;DHT22;4335;48.860;9.198;2023-07-13T13:32:33;27.60;48.50
8595;DHT22;4335;48.860;9.198;2023-07-13T13:35:03;27.60;48.50
8595;DHT22;4335;48.860;9.198;2023-07-13T13:37:32;27.60;48.50
8595;DHT22;4335;48.860;9.198;2023-07-13T13:39:59;27.60;48.10
8595;DHT22;4335;48.860;9.198;2023-07-13T13:42:27;27.60;47.70
8595;DHT22;4335;48.860;9.198;2023-07-13T13:45:02;27.60;47.90
8595;DHT22;4335;48.860;9.198;2023-07-13T13:47:39;27.50;47.80
8595;DHT22;4335;48.860;9.198;2023-07-13T13:50:12;27.40;48.60
8595;DHT22;4335;48.860;9.198;2023-07-13T13:52:40;27.30;48.60
8595;DHT22;4335;48.860;9.198;2023-07-13T13:55:12;27.20;48.00
8595;DHT22;4335;48.860;9.198;2023-07-13T13:57:40;27.30;47.80
8595;DHT22;4335;48.860;9.198;2023-07-13T14:00:12;27.30;47.40
8595;DHT22;4335;48.860;9.198;2023-07-13T14:02:41;27.20;47.50
8595;DHT22;4335;48.860;9.198;2023-07-13T14:05:13;27.10;48.40
8595;DHT22;4335;48.860;9.198;2023-07-13T14:07:47;27.20;48.60
8595;DHT22;4335;48.860;9.198;2023-07-13T14:10:17;27.00;48.80
8595;DHT22;4335;48.860;9.198;2023-07-13T14:12:50;27.00;48.80
8595;DHT22;4335;48.860;9.198;2023-07-13T14:15:21;26.90;49.00
8595;DHT22;4335;48.860;9.198;2023-07-13T14:17:48;26.80;48.80
8595;DHT22;4335;48.860;9.198;2023-07-13T14:20:17;26.90;48.80
8595;DHT22;4335;48.860;9.198;2023-07-13T14:22:48;26.90;48.50
8595;DHT22;4335;48.860;9.198;2023-07-13T14:25:17;26.90;48.30
8595;DHT22;4335;48.860;9.198;2023-07-13T14:27:51;27.00;49.60
8595;DHT22;4335;48.860;9.198;2023-07-13T14:30:24;27.00;48.80
8595;DHT22;4335;48.860;9.198;2023-07-13T14:32:51;27.00;49.10
8595;DHT22;4335;48.860;9.198;2023-07-13T14:35:22;27.10;49.20
8595;DHT22;4335;48.860;9.198;2023-07-13T14:37:50;27.10;49.00
8595;DHT22;4335;48.860;9.198;2023-07-13T14:40:21;27.10;48.80
8595;DHT22;4335;48.860;9.198;2023-07-13T14:42:51;27.10;49.50
8595;DHT22;4335;48.860;9.198;2023-07-13T14:45:19;27.20;49.40
8595;DHT22;4335;48.860;9.198;2023-07-13T14:47:48;27.10;49.30
8595;DHT22;4335;48.860;9.198;2023-07-13T14:50:17;27.10;49.70
8595;DHT22;4335;48.860;9.198;2023-07-13T14:52:46;27.00;49.90
8595;DHT22;4335;48.860;9.198;2023-07-13T14:55:18;26.90;50.10
8595;DHT22;4335;48.860;9.198;2023-07-13T14:57:47;26.90;50.50
8595;DHT22;4335;48.860;9.198;2023-07-13T15:00:20;26.80;50.70
8595;DHT22;4335;48.860;9.198;2023-07-13T15:02:51;26.80;49.90
8595;DHT22;4335;48.860;9.198;2023-07-13T15:05:25;26.80;50.50
8595;DHT22;4335;48.860;9.198;2023-07-13T15:07:57;26.80;51.20
8595;DHT22;4335;48.860;9.198;2023-07-13T15:10:27;26.80;51.00
8595;DHT22;4335;48.860;9.198;2023-07-13T15:12:59;26.70;51.10
8595;DHT22;4335;48.860;9.198;2023-07-13T15:15:27;26.70;51.00
8595;DHT22;4335;48.860;9.198;2023-07-13T15:18:00;26.70;50.90
8595;DHT22;4335;48.860;9.198;2023-07-13T15:20:31;26.70;50.80
8595;DHT22;4335;48.860;9.198;2023-07-13T15:22:58;26.80;51.20
8595;DHT22;4335;48.860;9.198;2023-07-13T15:25:28;26.70;50.90
8595;DHT22;4335;48.860;9.198;2023-07-13T15:28:00;26.70;51.20
8595;DHT22;4335;48.860;9.198;2023-07-13T15:30:31;26.70;51.30
8595;DHT22;4335;48.860;9.198;2023-07-13T15:33:06;26.60;51.00
8595;DHT22;4335;48.860;9.198;2023-07-13T15:35:37;26.60;51.10
8595;DHT22;4335;48.860;9.198;2023-07-13T15:38:14;26.60;51.00
8595;DHT22;4335;48.860;9.198;2023-07-13T15:40:41;26.60;51.30
8595;DHT22;4335;48.860;9.198;2023-07-13T15:43:16;26.60;51.20
8595;DHT22;4335;48.860;9.198;2023-07-13T15:45:47;26.60;51.60
8595;DHT22;4335;48.860;9.198;2023-07-13T15:48:19;26.50;51.40
8595;DHT22;4335;48.860;9.198;2023-07-13T15:50:49;26.50;51.40
8595;DHT22;4335;48.860;9.198;2023-07-13T15:53:19;26.50;51.90
8595;DHT22;4335;48.860;9.198;2023-07-13T15:55:51;26.40;52.10
8595;DHT22;4335;48.860;9.198;2023-07-13T15:58:22;26.30;51.90
8595;DHT22;4335;48.860;9.198;2023-07-13T16:00:49;26.30;52.20
8595;DHT22;4335;48.860;9.198;2023-07-13T16:03:19;26.30;52.40
8595;DHT22;4335;48.860;9.198;2023-07-13T16:05:47;26.30;52.60
8595;DHT22;4335;48.860;9.198;2023-07-13T16:08:23;26.30;52.40
8595;DHT22;4335;48.860;9.198;2023-07-13T16:10:51;26.20;52.40
8595;DHT22;4335;48.860;9.198;2023-07-13T16:13:19;26.20;52.70
8595;DHT22;4335;48.860;9.198;2023-07-13T16:15:47;26.20;52.80
8595;DHT22;4335;48.860;9.198;2023-07-13T16:18:15;26.20;52.40
8595;DHT22;4335;48.860;9.198;2023-07-13T16:20:53;26.30;52.50
8595;DHT22;4335;48.860;9.198;2023-07-13T16:23:22;26.20;52.20
8595;DHT22;4335;48.860;9.198;2023-07-13T16:25:52;26.20;52.70
8595;DHT22;4335;48.860;9.198;2023-07-13T16:28:23;26.20;52.60